Lisbon, Iowa
Current Conditions -  °F | °C
As of 8:52 AM on Thursday 30 Oct 2014 (Local Time) from KCID Reporting Station
Overcast Overcast  
Wind Chill: 37°   Ceiling: 7000
Heat Index: 41°   Visibility: 10mi
Dew Point: 37°   Wind: 6mph
Humidity: 86%   Direction: 130°SE
Pressure: 30.08"   Gusts: NA
Location:  41.92°N, 91.39°W
Report Text: KCID 301352Z 13005KT 10SM OVC070 05/03 A3008 RMK AO2 SLP194 T00500028
Loading
Personal Weather Stations






























Interactive Weather Map
Tropical Storm Tracking
New forecast layout! Learn more

10-Day Weather Forecast

Advertisements
Track Severe Weather on mobile